Volodymyr-Volyns'Kyi, Ukraine
Current Conditions -  °F | °C
As of 11:30 AM on Sunday 26 Oct 2014 (Local Time) from UKLL Reporting Station
Clear Clear  
Wind Chill: 29°   Ceiling: Unl
Heat Index: 36°   Visibility: 6mi
Dew Point: 21°   Wind: 9mph
Humidity: 56%   Direction: 140°SE
Pressure: 30.45"   Gusts: NA
Location:  50.83°N, 24.32°E
Report Text: UKLL 260830Z 14004MPS CAVOK 02/M06 Q1031 13CLRD80 NOSIG
Loading
Personal Weather Stations






























Interactive Weather Map
Tropical Storm Tracking
New forecast layout! Learn more

10-Day Weather Forecast

Advertisements
Track Severe Weather on mobile